This is the latest recevied weather packets stored in our database for station/object N4NVD-13. If no packets are shown the sender has not sent any weather packets the latest 1 day(s).
| Time | Temp. | Humidity | Pressure | Rain* | Wind** | Luminosity | Snow |
|---|---|---|---|---|---|---|---|
| 1778028602 | 26.11° C | 88% | 1005.1 hPa | 0 mm | 2.68 m/s, 173° | 16 W/m² | - |
| 1778028300 | 26.67° C | 87% | 1005 hPa | 0 mm | 0.89 m/s, 185° | 18 W/m² | - |
| 1778027996 | 26.67° C | 88% | 1005.1 hPa | 0 mm | 0.89 m/s, 165° | 21 W/m² | - |
| 1778027693 | 26.67° C | 87% | 1005.1 hPa | 0 mm | 1.34 m/s, 214° | 23 W/m² | - |
| 1778027389 | 26.67° C | 87% | 1004.9 hPa | 0 mm | 0.89 m/s, 117° | 29 W/m² | - |
| 1778027085 | 26.67° C | 87% | 1005 hPa | 0 mm | 1.79 m/s, 186° | 38 W/m² | - |
| 1778026781 | 26.67° C | 87% | 1004.8 hPa | 0 mm | 1.34 m/s, 157° | 48 W/m² | - |
| 1778026478 | 27.22° C | 87% | 1005 hPa | 0 mm | 0.45 m/s, 157° | 51 W/m² | - |
| 1778026175 | 27.22° C | 86% | 1005 hPa | 0 mm | 1.34 m/s, 205° | 57 W/m² | - |
| 1778025872 | 27.22° C | 86% | 1005.2 hPa | 0 mm | 0.89 m/s, 156° | 61 W/m² | - |
| 1778025569 | 27.22° C | 86% | 1005.2 hPa | 0 mm | 0.45 m/s, 180° | 60 W/m² | - |
| 1778025268 | 27.22° C | 85% | 1005.1 hPa | 0 mm | 1.79 m/s, 178° | 61 W/m² | - |
| 1778024964 | 27.78° C | 85% | 1005 hPa | 0 mm | 2.68 m/s, 135° | 73 W/m² | - |
| 1778024661 | 27.78° C | 85% | 1005.2 hPa | 0 mm | 0.89 m/s, 245° | 89 W/m² | - |
| 1778024358 | 27.78° C | 85% | 1005 hPa | 0 mm | 2.68 m/s, 141° | 102 W/m² | - |
| 1778024056 | 27.78° C | 85% | 1005 hPa | 0 mm | 1.34 m/s, 166° | 98 W/m² | - |
| 1778023753 | 27.78° C | 85% | 1005.2 hPa | 0 mm | 2.68 m/s, 223° | 83 W/m² | - |
| 1778023451 | 27.78° C | 85% | 1004.9 hPa | 0 mm | 0.45 m/s, 188° | 102 W/m² | - |
| 1778023147 | 27.78° C | 84% | 1005 hPa | 0 mm | 1.34 m/s, 175° | 103 W/m² | - |
| 1778022845 | 28.33° C | 84% | 1004.5 hPa | 0 mm | 2.68 m/s, 157° | 137 W/m² | - |
| 1778022543 | 28.33° C | 84% | 1004.9 hPa | 0 mm | 2.24 m/s, 240° | 177 W/m² | - |
| 1778022240 | 28.33° C | 84% | 1004.7 hPa | 0 mm | 1.34 m/s, 169° | 182 W/m² | - |
| 1778021936 | 28.33° C | 84% | 1004.8 hPa | 0 mm | 0.45 m/s, 165° | 136 W/m² | - |
| 1778021634 | 28.33° C | 83% | 1004.9 hPa | 0 mm | 2.68 m/s, 210° | 149 W/m² | - |
| 1778021329 | 28.89° C | 81% | 1004.8 hPa | 0 mm | 1.79 m/s, 129° | 170 W/m² | - |
* Rain latest hour (hover to see other rain measurements)
** Current wind speed in m/s (hover to see current wind gust speed)